Time;durP1;ratioP1;P1;durP2;ratioP2;P2;SDS_P1;SDS_P2;PMS_P1;PMS_P2;Temp;Humidity;BMP_temperature;BMP_pressure;BME280_temperature;BME280_humidity;BME280_pressure;Samples;Min_cycle;Max_cycle;Signal;HPM_P1;HPM_P2
2022/05/04 20:22:46;;;;;;;22.85;10.32;;;;;;;17.27;100.00;97945.66;5006781;28;20459;-54
2022/05/04 20:25:12;;;;;;;20.80;9.65;;;;;;;17.29;100.00;97955.13;5013003;28;20606;-54
2022/05/04 20:27:37;;;;;;;20.23;9.25;;;;;;;16.93;100.00;97953.25;5010393;28;20021;-57
2022/05/04 20:30:04;;;;;;;18.05;9.25;;;;;;;17.19;100.00;97951.47;5021069;28;20485;-54
2022/05/04 20:32:29;;;;;;;18.90;8.57;;;;;;;17.64;100.00;97958.91;4999754;28;20041;-55
2022/05/04 20:34:55;;;;;;;24.70;10.25;;;;;;;16.82;100.00;97950.44;5000263;28;20061;-55
2022/05/04 20:40:06;;;;;;;24.63;9.88;;;;;;;16.91;100.00;97950.72;4999022;28;20044;-57
2022/05/04 20:42:33;;;;;;;20.65;9.50;;;;;;;17.33;100.00;97953.13;4999564;28;20481;-56
2022/05/04 20:44:58;;;;;;;20.45;10.02;;;;;;;17.32;100.00;97951.47;5000103;28;20022;-56
2022/05/04 20:47:23;;;;;;;23.33;9.85;;;;;;;16.67;100.00;97950.53;4998274;28;20044;-55
2022/05/04 20:49:49;;;;;;;18.90;8.77;;;;;;;17.38;100.00;97943.09;4998024;28;20038;-56
2022/05/04 20:52:16;;;;;;;17.55;8.57;;;;;;;17.52;100.00;97940.34;4998206;28;20054;-55
2022/05/04 20:54:42;;;;;;;19.23;8.88;;;;;;;17.23;100.00;97941.56;5000170;28;20068;-54
2022/05/04 20:57:08;;;;;;;15.50;7.13;;;;;;;17.87;100.00;97942.31;4999757;28;20061;-54
2022/05/04 20:59:34;;;;;;;15.45;8.18;;;;;;;17.36;100.00;97937.09;4999960;28;20030;-56
2022/05/04 21:01:59;;;;;;;16.27;8.15;;;;;;;17.31;100.00;97931.31;4999672;28;20088;-55
2022/05/04 21:04:25;;;;;;;18.08;10.05;;;;;;;16.64;100.00;97937.56;5000353;28;20066;-54
2022/05/04 21:06:51;;;;;;;15.75;7.53;;;;;;;17.60;100.00;97938.97;4999133;28;20467;-55
2022/05/04 21:09:16;;;;;;;17.55;9.07;;;;;;;17.40;100.00;97930.66;4999462;28;20049;-55
2022/05/04 21:11:43;;;;;;;18.80;9.65;;;;;;;16.91;100.00;97927.00;4999172;28;20037;-55
2022/05/04 21:14:09;;;;;;;22.33;9.73;;;;;;;17.22;100.00;97926.66;5000423;28;20034;-55
2022/05/04 21:16:35;;;;;;;18.88;8.27;;;;;;;17.67;100.00;97927.03;4999098;28;20038;-56
2022/05/04 21:19:01;;;;;;;20.10;9.38;;;;;;;17.74;100.00;97936.22;4999511;28;20029;-55
2022/05/04 21:21:27;;;;;;;17.58;9.65;;;;;;;16.91;100.00;97924.38;4998531;28;20483;-55
2022/05/04 21:23:53;;;;;;;20.33;9.52;;;;;;;17.12;100.00;97927.31;4999535;28;20073;-55
2022/05/04 21:26:22;;;;;;;16.58;8.85;;;;;;;17.05;100.00;97925.22;4998751;28;20046;-55
2022/05/04 21:28:48;;;;;;;16.92;7.85;;;;;;;17.34;100.00;97931.09;4998159;28;20089;-54
2022/05/04 21:31:14;;;;;;;18.40;9.32;;;;;;;16.90;100.00;97932.38;4998688;28;20026;-55
2022/05/04 21:33:39;;;;;;;14.38;8.07;;;;;;;16.76;100.00;97928.84;4989028;28;20033;-55
2022/05/04 21:36:05;;;;;;;16.60;8.38;;;;;;;16.90;100.00;97935.00;4985648;28;20042;-54
2022/05/04 21:38:30;;;;;;;14.13;7.35;;;;;;;17.40;100.00;97941.22;4986291;28;20649;-57
2022/05/04 21:40:56;;;;;;;18.92;9.57;;;;;;;16.77;100.00;97938.41;4985445;28;20023;-56
2022/05/04 21:43:22;;;;;;;15.38;8.93;;;;;;;16.82;100.00;97939.91;4986758;28;20040;-55
2022/05/04 21:45:47;;;;;;;15.77;8.70;;;;;;;16.94;100.00;97933.84;4985697;28;20609;-55
2022/05/04 21:48:12;;;;;;;16.73;7.88;;;;;;;17.27;100.00;97943.03;4985886;28;20034;-55
2022/05/04 21:50:39;;;;;;;16.42;8.27;;;;;;;17.05;100.00;97947.13;4985668;28;20065;-56
2022/05/04 21:53:04;;;;;;;17.77;8.75;;;;;;;16.81;100.00;97948.75;4985134;28;20062;-57
2022/05/04 21:55:30;;;;;;;18.77;9.57;;;;;;;16.81;100.00;97954.03;4985399;28;20129;-55
2022/05/04 21:57:55;;;;;;;16.90;9.32;;;;;;;16.36;100.00;97949.94;4985815;28;20038;-55
2022/05/04 22:00:27;;;;;;;19.20;9.98;;;;;;;16.41;100.00;97956.66;4985271;28;20034;-55
2022/05/04 22:02:53;;;;;;;19.57;9.20;;;;;;;16.57;100.00;97954.72;4985739;28;20135;-55
2022/05/04 22:05:18;;;;;;;20.58;9.05;;;;;;;16.80;100.00;97952.34;5000485;28;20320;-54
2022/05/04 22:07:43;;;;;;;16.55;8.65;;;;;;;16.89;100.00;97951.75;4985637;28;20851;-54
2022/05/04 22:10:09;;;;;;;12.50;7.40;;;;;;;17.15;100.00;97958.72;4985077;28;20030;-54
2022/05/04 22:15:18;;;;;;;19.73;9.80;;;;;;;16.09;100.00;97956.97;4985764;28;20037;-55
2022/05/04 22:17:44;;;;;;;18.63;8.05;;;;;;;16.27;100.00;97963.69;4985235;28;20014;-57
2022/05/04 22:20:10;;;;;;;21.48;9.73;;;;;;;16.64;100.00;97958.63;4985039;28;20909;-55
2022/05/04 22:22:37;;;;;;;19.73;8.60;;;;;;;17.27;100.00;97961.47;4985015;28;20125;-55
2022/05/04 22:25:03;;;;;;;16.58;9.95;;;;;;;16.40;100.00;97965.53;4985273;28;20030;-54
2022/05/04 22:27:29;;;;;;;23.40;10.55;;;;;;;16.21;100.00;97971.13;4984762;28;20137;-56
2022/05/04 22:29:56;;;;;;;21.23;9.65;;;;;;;15.76;100.00;97977.41;4985326;28;20030;-55
2022/05/04 22:32:21;;;;;;;16.98;8.80;;;;;;;16.03;100.00;97976.63;4984227;28;20030;-56
2022/05/04 22:34:46;;;;;;;19.27;9.18;;;;;;;16.75;100.00;97977.19;4985170;28;20307;-57
2022/05/04 22:37:12;;;;;;;16.88;8.35;;;;;;;16.15;100.00;97978.47;4984581;28;20034;-55
2022/05/04 22:39:37;;;;;;;14.50;6.70;;;;;;;17.25;100.00;97984.47;4985114;28;20065;-55
2022/05/04 22:42:03;;;;;;;17.40;8.05;;;;;;;16.61;100.00;97982.53;4984811;28;20042;-56
2022/05/04 22:44:28;;;;;;;16.98;8.65;;;;;;;16.72;100.00;97977.38;4984292;28;20121;-55
2022/05/04 22:46:53;;;;;;;16.02;8.30;;;;;;;15.73;100.00;97992.50;4984728;28;20038;-55
2022/05/04 22:49:19;;;;;;;19.55;8.55;;;;;;;15.61;100.00;97994.13;4984846;28;20026;-56
2022/05/04 22:51:44;;;;;;;20.92;8.98;;;;;;;15.60;100.00;98000.31;4983960;28;20093;-55
2022/05/04 22:54:10;;;;;;;20.25;8.65;;;;;;;16.23;100.00;97991.16;4985068;28;20392;-55
2022/05/04 22:56:35;;;;;;;17.02;8.95;;;;;;;15.91;100.00;98001.06;4984522;28;20128;-55
2022/05/04 22:59:00;;;;;;;17.25;9.10;;;;;;;16.14;100.00;98002.25;4984768;28;20879;-56
2022/05/04 23:01:26;;;;;;;13.18;6.47;;;;;;;16.53;100.00;98003.25;4984367;28;20070;-55
2022/05/04 23:03:52;;;;;;;18.60;9.18;;;;;;;16.09;100.00;98001.72;4984423;28;20044;-55
2022/05/04 23:06:17;;;;;;;11.40;7.13;;;;;;;16.33;100.00;98002.75;4984178;28;20053;-56
2022/05/04 23:08:43;;;;;;;19.23;8.40;;;;;;;16.31;100.00;98004.66;4984594;28;20375;-55
2022/05/04 23:11:08;;;;;;;19.15;8.82;;;;;;;15.63;100.00;98005.38;4984016;28;20030;-55
2022/05/04 23:13:34;;;;;;;18.88;8.93;;;;;;;15.60;100.00;97998.53;4984608;28;20042;-55
2022/05/04 23:16:05;;;;;;;15.85;7.95;;;;;;;16.19;100.00;98000.16;4984306;28;20039;-55
2022/05/04 23:18:34;;;;;;;18.02;7.70;;;;;;;16.20;100.00;97996.59;4983964;28;20027;-56
2022/05/04 23:21:00;;;;;;;16.25;7.63;;;;;;;16.26;100.00;97995.34;4983602;28;20678;-57
2022/05/04 23:23:26;;;;;;;16.10;8.35;;;;;;;15.71;100.00;98004.91;4983106;28;20506;-54
2022/05/04 23:25:51;;;;;;;16.27;8.25;;;;;;;15.99;100.00;97994.41;4984031;28;20531;-54
2022/05/04 23:28:17;;;;;;;19.75;9.52;;;;;;;15.69;100.00;97991.00;4983897;28;20038;-55
2022/05/04 23:30:42;;;;;;;22.13;10.80;;;;;;;16.16;100.00;98001.22;4983904;28;20045;-56
2022/05/04 23:33:07;;;;;;;21.38;10.10;;;;;;;16.02;100.00;97997.78;4984252;28;20057;-55
2022/05/04 23:35:33;;;;;;;18.67;8.35;;;;;;;16.27;100.00;97997.91;4983573;28;20040;-56
2022/05/04 23:37:58;;;;;;;27.70;7.80;;;;;;;16.49;100.00;97993.88;4983876;28;20049;-54
2022/05/04 23:40:24;;;;;;;21.02;10.73;;;;;;;16.12;100.00;98002.34;4983488;28;20057;-56
2022/05/04 23:42:50;;;;;;;49.15;11.15;;;;;;;15.43;100.00;98011.84;4984511;28;20026;-56
2022/05/04 23:45:15;;;;;;;16.85;9.15;;;;;;;16.04;100.00;98004.63;4983813;28;20027;-56
2022/05/04 23:47:40;;;;;;;19.95;9.60;;;;;;;15.97;100.00;98001.53;4983893;28;20053;-56
2022/05/04 23:50:06;;;;;;;19.58;9.70;;;;;;;16.44;100.00;98003.88;4983273;28;20618;-56
2022/05/04 23:52:32;;;;;;;16.38;7.88;;;;;;;16.43;100.00;98002.16;4983383;28;20022;-54
2022/05/04 23:54:58;;;;;;;23.08;10.20;;;;;;;15.87;100.00;98008.31;4984207;28;20073;-55
2022/05/04 23:57:23;;;;;;;15.95;7.70;;;;;;;16.81;100.00;98002.28;4983071;28;20128;-56
2022/05/04 23:59:49;;;;;;;21.02;10.60;;;;;;;16.19;100.00;98005.41;4983701;28;20030;-55
